createdAt,value
2022-12-23T00:02:49.489Z,0.80
2022-12-23T00:05:52.557Z,0.60
2022-12-23T00:08:58.340Z,0.90
2022-12-23T00:12:20.622Z,0.83
2022-12-23T00:15:23.175Z,0.57
2022-12-23T00:18:25.708Z,0.87
2022-12-23T00:21:28.241Z,0.70
2022-12-23T00:24:30.862Z,0.40
2022-12-23T00:27:37.732Z,0.50
2022-12-23T00:30:46.835Z,0.30
2022-12-23T00:33:51.749Z,0.40
2022-12-23T00:36:54.573Z,0.50
2022-12-23T00:40:14.820Z,0.90
2022-12-23T00:43:18.983Z,0.30
2022-12-23T00:46:21.573Z,0.90
2022-12-23T00:49:41.699Z,0.50
2022-12-23T00:52:44.211Z,0.80
2022-12-23T00:55:47.741Z,0.70
2022-12-23T00:58:51.705Z,0.40
2022-12-23T01:02:12.085Z,0.40
2022-12-23T01:05:32.516Z,0.40
2022-12-23T01:08:35.183Z,0.40
2022-12-23T01:11:37.769Z,0.53
2022-12-23T01:14:41.912Z,0.40
2022-12-23T01:17:44.485Z,0.37
2022-12-23T01:20:47.035Z,0.40
2022-12-23T01:23:49.566Z,0.73
2022-12-23T01:26:52.104Z,0.30
2022-12-23T01:29:56.372Z,0.20
2022-12-23T01:32:59.161Z,0.40
2022-12-23T01:36:02.888Z,0.52
2022-12-23T01:42:29.874Z,0.50
2022-12-23T01:45:34.808Z,0.40
2022-12-23T01:48:37.700Z,0.30
2022-12-23T01:51:40.298Z,0.30
2022-12-23T01:54:43.376Z,0.40
2022-12-23T01:57:46.209Z,0.30
2022-12-23T02:01:07.639Z,0.30
2022-12-23T02:04:12.773Z,0.33
2022-12-23T02:07:32.824Z,0.30
2022-12-23T02:10:59.043Z,0.30
2022-12-23T02:14:45.549Z,0.23
2022-12-23T02:17:59.276Z,0.20
2022-12-23T02:21:12.114Z,0.22
2022-12-23T02:24:37.625Z,0.20
2022-12-23T02:27:54.090Z,0.30
2022-12-23T02:31:02.366Z,0.30
2022-12-23T02:34:11.279Z,0.20
2022-12-23T02:37:21.086Z,0.37
2022-12-23T02:40:30.545Z,0.20
2022-12-23T02:43:40.406Z,0.20
2022-12-23T02:46:47.250Z,0.30
2022-12-23T02:49:52.849Z,0.40
2022-12-23T02:52:59.034Z,0.30
2022-12-23T02:56:03.398Z,0.20
2022-12-23T02:59:09.408Z,0.30
2022-12-23T03:02:13.600Z,0.60
2022-12-23T03:05:27.519Z,0.30
2022-12-23T03:08:32.938Z,0.20
2022-12-23T03:11:43.167Z,0.27
2022-12-23T03:15:04.535Z,0.30
2022-12-23T03:18:13.229Z,0.20
2022-12-23T03:21:19.041Z,0.30
2022-12-23T03:24:25.718Z,0.33
2022-12-23T03:27:32.402Z,0.37
2022-12-23T03:30:35.447Z,0.30
2022-12-23T03:33:42.129Z,0.20
2022-12-23T03:36:48.000Z,0.20
2022-12-23T03:39:53.842Z,0.20
2022-12-23T03:43:00.519Z,0.33
2022-12-23T03:46:06.460Z,0.93
2022-12-23T03:49:14.202Z,0.20
2022-12-23T03:52:21.541Z,0.20
2022-12-23T03:55:27.325Z,0.27
2022-12-23T03:58:35.361Z,0.73
2022-12-23T04:01:42.456Z,0.20
2022-12-23T04:04:54.419Z,0.30
2022-12-23T04:08:02.461Z,0.30
2022-12-23T04:11:05.362Z,0.63
2022-12-23T04:14:08.336Z,0.20
2022-12-23T04:17:10.839Z,0.20
2022-12-23T04:20:15.160Z,0.30
2022-12-23T04:23:17.699Z,0.30
2022-12-23T04:26:20.453Z,0.20
2022-12-23T04:29:22.984Z,0.10
2022-12-23T04:32:26.689Z,0.40
2022-12-23T04:35:30.573Z,0.30
2022-12-23T04:38:33.168Z,0.30
2022-12-23T04:41:35.734Z,0.40
2022-12-23T04:44:38.269Z,0.60
2022-12-23T04:47:41.495Z,0.40
2022-12-23T04:50:45.381Z,0.30
2022-12-23T04:53:47.903Z,0.40
2022-12-23T04:56:50.751Z,0.33
2022-12-23T04:59:53.289Z,0.60
2022-12-23T05:02:55.989Z,0.30
2022-12-23T05:06:00.161Z,0.25
2022-12-23T05:09:02.806Z,0.40
2022-12-23T05:12:05.475Z,0.30
2022-12-23T05:15:09.207Z,0.33
2022-12-23T05:18:11.872Z,0.47
2022-12-23T05:21:16.443Z,0.50
2022-12-23T05:24:19.182Z,0.40
2022-12-23T05:27:21.828Z,0.50
2022-12-23T05:30:24.403Z,0.40
2022-12-23T05:33:27.232Z,0.30
2022-12-23T05:36:31.154Z,0.40
2022-12-23T05:39:33.860Z,0.33
2022-12-23T05:42:36.560Z,0.20
2022-12-23T05:45:39.281Z,0.20
2022-12-23T05:48:41.893Z,0.40
2022-12-23T05:51:45.781Z,0.30
2022-12-23T05:54:48.412Z,0.40
2022-12-23T05:57:51.072Z,0.70
2022-12-23T06:00:54.412Z,0.65
2022-12-23T06:03:57.305Z,0.50
2022-12-23T06:07:01.470Z,1.20
2022-12-23T06:10:05.550Z,0.87
2022-12-23T06:13:08.196Z,0.43
2022-12-23T06:16:10.789Z,0.50
2022-12-23T06:19:13.362Z,0.60
2022-12-23T06:22:17.724Z,0.70
2022-12-23T06:25:20.323Z,0.70
2022-12-23T06:28:22.946Z,0.60
2022-12-23T06:31:25.576Z,0.50
2022-12-23T06:34:28.162Z,0.50
2022-12-23T06:37:32.122Z,0.40
2022-12-23T06:40:34.739Z,1.30
2022-12-23T06:43:37.275Z,0.90
2022-12-23T06:50:09.002Z,1.10
2022-12-23T06:53:13.257Z,1.90
2022-12-23T06:56:15.952Z,1.93
2022-12-23T06:59:18.654Z,1.60
2022-12-23T07:02:21.794Z,1.50
2022-12-23T07:05:24.886Z,3.00
2022-12-23T07:08:28.869Z,4.68
2022-12-23T07:11:31.619Z,2.97
2022-12-23T07:14:34.205Z,2.90
2022-12-23T07:17:36.744Z,2.13
2022-12-23T07:20:39.400Z,3.70
2022-12-23T07:23:43.476Z,3.37
2022-12-23T07:26:46.161Z,2.00
2022-12-23T07:29:48.734Z,2.70
2022-12-23T07:32:52.133Z,1.70
2022-12-23T07:35:58.826Z,2.53
2022-12-23T07:39:02.841Z,2.30
2022-12-23T07:45:29.228Z,2.70
2022-12-23T07:48:31.808Z,2.80
2022-12-23T07:51:34.294Z,3.37
2022-12-23T07:54:38.261Z,3.50
2022-12-23T07:57:40.855Z,3.20
2022-12-23T08:00:43.558Z,2.10
2022-12-23T08:03:46.242Z,2.33
2022-12-23T08:06:49.001Z,1.90
2022-12-23T08:09:53.132Z,1.70
2022-12-23T08:12:55.732Z,1.03
2022-12-23T08:16:00.408Z,1.40
2022-12-23T08:19:03.013Z,1.30
2022-12-23T08:22:05.735Z,1.30
2022-12-23T08:25:10.802Z,1.20
2022-12-23T08:28:13.468Z,0.90
2022-12-23T08:31:17.546Z,1.25
2022-12-23T08:34:20.310Z,1.20
2022-12-23T08:37:23.077Z,1.20
2022-12-23T08:40:26.915Z,1.10
2022-12-23T08:43:35.624Z,1.33
2022-12-23T08:46:39.172Z,1.53
2022-12-23T08:49:41.947Z,1.23
2022-12-23T08:52:44.457Z,1.30
2022-12-23T08:55:48.524Z,1.73
2022-12-23T08:58:52.701Z,1.30
2022-12-23T09:01:55.372Z,1.10
2022-12-23T09:04:58.084Z,0.95
2022-12-23T09:08:00.969Z,0.73
2022-12-23T09:11:05.084Z,1.35
2022-12-23T09:14:08.505Z,1.13
2022-12-23T09:17:11.702Z,1.10
2022-12-23T09:20:14.357Z,0.82
2022-12-23T09:23:16.929Z,0.90
2022-12-23T09:26:22.444Z,0.70
2022-12-23T09:29:25.016Z,0.70
2022-12-23T09:32:27.619Z,1.33
2022-12-23T09:35:30.384Z,0.70
2022-12-23T09:38:33.249Z,0.52
2022-12-23T09:41:49.383Z,0.50
2022-12-23T09:45:13.901Z,0.40
2022-12-23T09:48:19.223Z,0.50
2022-12-23T09:51:23.387Z,1.10
2022-12-23T09:54:28.899Z,0.40
2022-12-23T09:57:36.481Z,0.53
2022-12-23T10:00:41.639Z,1.13
2022-12-23T10:04:10.562Z,1.00
2022-12-23T10:07:23.122Z,0.70
2022-12-23T10:10:31.927Z,1.40
2022-12-23T10:13:38.962Z,1.13
2022-12-23T10:16:44.519Z,1.30
2022-12-23T10:19:49.117Z,0.80
2022-12-23T10:22:51.912Z,0.77
2022-12-23T10:25:54.535Z,0.45
2022-12-23T10:29:03.208Z,0.88
2022-12-23T10:32:15.099Z,0.90
2022-12-23T10:35:27.299Z,2.90
2022-12-23T10:38:40.201Z,0.80
2022-12-23T10:41:49.710Z,1.30
2022-12-23T10:45:23.300Z,1.60
2022-12-23T10:48:37.312Z,0.80
2022-12-23T10:51:46.612Z,1.20
2022-12-23T10:54:49.441Z,1.00
2022-12-23T10:57:53.570Z,1.27
2022-12-23T11:01:00.540Z,1.03
2022-12-23T11:04:07.776Z,1.03
2022-12-23T11:10:36.456Z,0.90
2022-12-23T11:13:41.058Z,1.20
2022-12-23T11:16:47.740Z,1.07
2022-12-23T11:20:08.362Z,1.40
2022-12-23T11:23:25.615Z,1.10
2022-12-23T11:26:28.186Z,1.30
2022-12-23T11:29:33.295Z,1.90
2022-12-23T11:32:37.430Z,1.30
2022-12-23T11:35:40.541Z,1.20
2022-12-23T11:38:49.449Z,1.90
2022-12-23T11:41:54.593Z,1.50
2022-12-23T11:44:59.788Z,1.40
2022-12-23T11:48:04.439Z,1.70
2022-12-23T11:51:07.247Z,1.20
2022-12-23T11:54:16.840Z,1.50
2022-12-23T11:57:23.394Z,0.90
2022-12-23T12:00:28.252Z,0.97
2022-12-23T12:03:35.369Z,0.70
2022-12-23T12:06:43.997Z,0.70
2022-12-23T12:09:46.911Z,0.63
2022-12-23T12:12:54.847Z,0.63
2022-12-23T12:16:07.153Z,1.20
2022-12-23T12:19:13.959Z,0.87
2022-12-23T12:22:31.770Z,0.80
2022-12-23T12:25:40.013Z,0.93
2022-12-23T12:28:45.090Z,1.60
2022-12-23T12:31:49.729Z,2.03
2022-12-23T12:34:58.217Z,0.80
2022-12-23T12:38:04.144Z,0.80
2022-12-23T12:41:12.330Z,0.93
2022-12-23T12:44:28.127Z,1.87
2022-12-23T12:47:53.480Z,1.00
2022-12-23T12:51:03.025Z,0.80
2022-12-23T12:54:14.068Z,1.00
2022-12-23T12:57:18.804Z,0.77
2022-12-23T13:00:23.391Z,1.10
2022-12-23T13:03:37.657Z,0.80
2022-12-23T13:06:47.579Z,0.67
2022-12-23T13:10:00.156Z,0.70
2022-12-23T13:13:11.308Z,1.03
2022-12-23T13:16:22.166Z,0.67
2022-12-23T13:19:28.159Z,0.60
2022-12-23T13:22:34.487Z,0.50
2022-12-23T13:25:42.447Z,0.50
2022-12-23T13:28:51.008Z,0.60
2022-12-23T13:31:56.983Z,0.67
2022-12-23T13:35:07.768Z,0.50
2022-12-23T13:38:23.958Z,0.43
2022-12-23T13:41:32.438Z,0.57
2022-12-23T13:44:35.800Z,0.53
2022-12-23T13:47:46.763Z,0.60
2022-12-23T13:50:53.105Z,0.50
2022-12-23T13:54:04.845Z,0.80
2022-12-23T13:57:15.286Z,0.47
2022-12-23T14:00:27.249Z,0.70
2022-12-23T14:03:34.715Z,0.67
2022-12-23T14:06:45.139Z,0.43
2022-12-23T14:09:53.478Z,0.50
2022-12-23T14:13:02.733Z,0.63
2022-12-23T14:16:26.763Z,0.63
2022-12-23T14:19:42.343Z,0.50
2022-12-23T14:22:57.134Z,0.50
2022-12-23T14:26:10.781Z,0.60
2022-12-23T14:29:36.721Z,0.60
2022-12-23T14:32:44.571Z,1.00
2022-12-23T14:35:55.917Z,0.90
2022-12-23T14:39:30.634Z,0.63
2022-12-23T14:42:42.114Z,0.40
2022-12-23T14:45:45.241Z,0.40
2022-12-23T14:52:50.304Z,0.63
2022-12-23T14:56:08.628Z,0.40
2022-12-23T14:59:17.882Z,0.70
2022-12-23T15:02:24.067Z,0.60
2022-12-23T15:05:27.428Z,0.50
2022-12-23T15:08:32.894Z,0.70
2022-12-23T15:11:37.062Z,0.50
2022-12-23T15:14:47.351Z,0.70
2022-12-23T15:18:03.024Z,0.63
2022-12-23T15:21:12.488Z,0.53
2022-12-23T15:24:16.955Z,0.53
2022-12-23T15:27:29.596Z,0.40
2022-12-23T15:30:36.360Z,1.00
2022-12-23T15:37:02.643Z,0.53
2022-12-23T15:40:12.637Z,0.70
2022-12-23T15:43:19.705Z,0.70
2022-12-23T15:46:29.809Z,0.40
2022-12-23T15:49:33.177Z,0.63
2022-12-23T15:52:35.913Z,0.60
2022-12-23T15:55:40.526Z,0.60
2022-12-23T15:58:43.723Z,0.60
2022-12-23T16:01:48.017Z,0.47
2022-12-23T16:04:54.685Z,0.73
2022-12-23T16:08:11.086Z,0.40
2022-12-23T16:11:16.196Z,0.93
2022-12-23T16:14:25.967Z,0.80
2022-12-23T16:17:34.790Z,0.47
2022-12-23T16:20:41.857Z,0.30
2022-12-23T16:23:49.420Z,0.73
2022-12-23T16:26:51.953Z,0.50
2022-12-23T16:29:55.327Z,0.70
2022-12-23T16:33:02.095Z,0.40
2022-12-23T16:36:20.031Z,0.97
2022-12-23T16:39:24.006Z,0.70
2022-12-23T16:42:26.670Z,0.90
2022-12-23T16:45:29.558Z,0.93
2022-12-23T16:48:35.829Z,0.90
2022-12-23T16:51:39.194Z,0.80
2022-12-23T16:54:42.520Z,0.70
2022-12-23T16:57:45.847Z,0.63
2022-12-23T17:00:48.727Z,0.85
2022-12-23T17:03:53.169Z,0.70
2022-12-23T17:06:55.830Z,1.07
2022-12-23T17:09:58.387Z,0.60
2022-12-23T17:13:00.943Z,0.70
2022-12-23T17:16:03.579Z,1.33
2022-12-23T17:19:07.498Z,0.70
2022-12-23T17:22:13.500Z,0.83
2022-12-23T17:25:24.501Z,0.80
2022-12-23T17:28:30.993Z,0.70
2022-12-23T17:31:34.831Z,0.63
2022-12-23T17:34:39.103Z,0.80
2022-12-23T17:37:41.904Z,0.70
2022-12-23T17:40:46.504Z,0.70
2022-12-23T17:43:49.094Z,0.77
2022-12-23T17:46:51.749Z,1.10
2022-12-23T17:49:55.689Z,0.75
2022-12-23T17:52:58.315Z,1.00
2022-12-23T17:56:00.926Z,0.90
2022-12-23T17:59:03.476Z,0.67
2022-12-23T18:02:21.955Z,0.73
2022-12-23T18:05:28.276Z,0.90
2022-12-23T18:08:30.972Z,0.87
2022-12-23T18:11:36.770Z,0.70
2022-12-23T18:14:39.462Z,1.07
2022-12-23T18:17:42.038Z,0.35
2022-12-23T18:20:47.896Z,0.50
2022-12-23T18:23:50.900Z,1.30
2022-12-23T18:26:53.667Z,0.90
2022-12-23T18:29:56.328Z,0.93
2022-12-23T18:32:58.893Z,1.10
2022-12-23T18:36:02.945Z,1.33
2022-12-23T18:39:06.087Z,1.20
2022-12-23T18:42:12.147Z,0.85
2022-12-23T18:45:33.669Z,1.10
2022-12-23T18:48:36.811Z,0.80
2022-12-23T18:51:40.840Z,0.70
2022-12-23T18:54:43.343Z,0.53
2022-12-23T18:57:45.979Z,1.07
2022-12-23T19:00:48.942Z,1.20
2022-12-23T19:03:51.415Z,0.73
2022-12-23T19:06:55.624Z,0.70
2022-12-23T19:09:58.193Z,0.80
2022-12-23T19:13:01.595Z,0.80
2022-12-23T19:16:04.525Z,0.88
2022-12-23T19:19:07.358Z,0.75
2022-12-23T19:22:11.430Z,0.70
2022-12-23T19:25:15.883Z,1.30
2022-12-23T19:28:18.517Z,0.90
2022-12-23T19:31:23.062Z,0.87
2022-12-23T19:34:25.899Z,0.70
2022-12-23T19:37:30.465Z,0.88
2022-12-23T19:40:33.261Z,1.67
2022-12-23T19:43:36.423Z,0.85
2022-12-23T19:46:39.097Z,1.02
2022-12-23T19:49:41.703Z,1.10
2022-12-23T19:52:45.653Z,1.60
2022-12-23T19:55:59.014Z,2.63
2022-12-23T20:02:04.588Z,1.20
2022-12-23T20:05:09.631Z,0.90
2022-12-23T20:08:13.528Z,1.10
2022-12-23T20:11:18.701Z,1.80
2022-12-23T20:14:21.689Z,2.03
2022-12-23T20:17:24.351Z,1.50
2022-12-23T20:20:26.986Z,1.30
2022-12-23T20:23:32.025Z,0.80
2022-12-23T20:26:35.080Z,1.00
2022-12-23T20:29:37.639Z,1.25
2022-12-23T20:32:40.338Z,0.97
2022-12-23T20:35:42.861Z,0.70
2022-12-23T20:38:48.408Z,0.70
2022-12-23T20:41:51.213Z,0.50
2022-12-23T20:44:54.071Z,0.57
2022-12-23T20:47:56.669Z,0.38
2022-12-23T20:51:04.734Z,0.53
2022-12-23T20:54:09.200Z,0.50
2022-12-23T20:57:11.765Z,0.53
2022-12-23T21:00:15.490Z,0.40
2022-12-23T21:03:18.241Z,0.60
2022-12-23T21:06:21.310Z,0.52
2022-12-23T21:09:25.365Z,0.90
2022-12-23T21:12:27.981Z,1.53
2022-12-23T21:15:32.527Z,0.90
2022-12-23T21:18:35.435Z,0.60
2022-12-23T21:21:38.070Z,0.70
2022-12-23T21:24:42.084Z,0.60
2022-12-23T21:27:44.757Z,0.70
2022-12-23T21:30:47.266Z,0.65
2022-12-23T21:33:51.409Z,1.07
2022-12-23T21:36:54.149Z,1.40
2022-12-23T21:39:58.114Z,0.50
2022-12-23T21:43:05.343Z,1.20
2022-12-23T21:46:12.347Z,0.60
2022-12-23T21:49:15.289Z,0.90
2022-12-23T21:52:18.002Z,0.88
2022-12-23T21:55:21.896Z,1.20
2022-12-23T21:58:24.458Z,1.27
2022-12-23T22:01:27.870Z,1.10
2022-12-23T22:04:30.502Z,1.38
2022-12-23T22:07:33.069Z,1.33
2022-12-23T22:10:39.292Z,1.20
2022-12-23T22:13:42.525Z,1.53
2022-12-23T22:16:45.151Z,0.85
2022-12-23T22:19:47.699Z,0.82
2022-12-23T22:22:50.421Z,0.90
2022-12-23T22:25:55.310Z,1.20
2022-12-23T22:28:59.173Z,1.33
2022-12-23T22:32:01.782Z,2.07
2022-12-23T22:35:04.530Z,1.27
2022-12-23T22:38:07.024Z,1.77
2022-12-23T22:41:11.601Z,1.07
2022-12-23T22:44:15.039Z,1.80
2022-12-23T22:47:22.231Z,0.90
2022-12-23T22:50:24.815Z,1.93
2022-12-23T22:53:29.829Z,0.60
2022-12-23T22:56:34.171Z,1.30
2022-12-23T22:59:37.298Z,1.10
2022-12-23T23:02:39.841Z,1.00
2022-12-23T23:05:42.561Z,1.07
2022-12-23T23:08:45.365Z,1.80
2022-12-23T23:11:49.910Z,0.82
2022-12-23T23:14:55.685Z,0.80
2022-12-23T23:17:58.185Z,1.23
2022-12-23T23:21:00.998Z,1.13
2022-12-23T23:24:03.820Z,1.58
2022-12-23T23:27:07.809Z,1.10
2022-12-23T23:30:11.373Z,1.53
2022-12-23T23:36:17.734Z,0.90
2022-12-23T23:39:20.482Z,1.23
2022-12-23T23:42:24.368Z,1.15
2022-12-23T23:45:27.679Z,2.13
2022-12-23T23:48:30.227Z,1.23
2022-12-23T23:51:32.825Z,1.07
2022-12-23T23:54:35.602Z,1.10
2022-12-23T23:57:39.530Z,1.15
